Time;durP1;ratioP1;P1;durP2;ratioP2;P2;SDS_P1;SDS_P2;PMS_P1;PMS_P2;Temp;Humidity;BMP_temperature;BMP_pressure;BME280_temperature;BME280_humidity;BME280_pressure;Samples;Min_cycle;Max_cycle;Signal;HPM_P1;HPM_P2
2023/05/12 00:00:06;;;;;;;3.33;3.03;;;;;;;13.79;nan;99211.88;5043369;28;20290;-81
2023/05/12 00:02:37;;;;;;;2.30;2.10;;;;;;;13.79;nan;99203.13;5042365;28;20447;-81
2023/05/12 00:05:03;;;;;;;3.60;2.80;;;;;;;13.75;nan;99205.19;5043039;28;20823;-80
2023/05/12 00:07:28;;;;;;;3.87;2.93;;;;;;;13.71;nan;99206.41;5044256;28;20221;-81
2023/05/12 00:09:53;;;;;;;3.37;2.93;;;;;;;13.70;nan;99202.09;5044201;28;20733;-80
2023/05/12 00:12:19;;;;;;;2.87;2.23;;;;;;;13.68;nan;99202.22;5044975;28;20209;-81
2023/05/12 00:14:44;;;;;;;3.83;3.37;;;;;;;13.69;nan;99196.00;5043799;28;20249;-82
2023/05/12 00:17:09;;;;;;;3.60;2.43;;;;;;;13.71;nan;99195.84;5042156;28;20228;-80
2023/05/12 00:19:35;;;;;;;2.83;2.63;;;;;;;13.74;nan;99200.88;5043156;28;20308;-81
2023/05/12 00:22:01;;;;;;;3.23;2.80;;;;;;;13.75;nan;99194.63;5044099;28;20253;-81
2023/05/12 00:24:26;;;;;;;3.63;3.30;;;;;;;13.78;nan;99197.00;5043574;28;20598;-81
2023/05/12 00:26:53;;;;;;;2.70;2.50;;;;;;;13.78;nan;99198.81;5042430;28;20278;-81
2023/05/12 00:29:18;;;;;;;2.33;2.13;;;;;;;13.77;nan;99189.22;5042748;28;20213;-81
2023/05/12 00:31:43;;;;;;;2.40;2.07;;;;;;;13.77;nan;99192.72;5043657;28;20726;-81
2023/05/12 00:34:09;;;;;;;3.50;2.93;;;;;;;13.76;nan;99190.19;5044870;28;20796;-81
2023/05/12 00:36:34;;;;;;;5.60;2.80;;;;;;;13.71;nan;99187.91;5043084;28;20220;-80
2023/05/12 00:39:01;;;;;;;3.43;2.90;;;;;;;13.64;nan;99189.41;5044481;28;20488;-80
2023/05/12 00:41:27;;;;;;;4.03;3.10;;;;;;;13.62;nan;99186.91;5043604;28;20474;-80
2023/05/12 00:43:54;;;;;;;2.87;2.53;;;;;;;13.62;nan;99184.25;5021488;28;20218;-81
2023/05/12 00:46:21;;;;;;;4.55;2.97;;;;;;;13.63;nan;99185.09;5050963;28;20498;-81
2023/05/12 00:48:47;;;;;;;3.65;3.20;;;;;;;13.63;nan;99179.81;5049624;28;20232;-80
2023/05/12 00:51:14;;;;;;;3.47;3.08;;;;;;;13.62;nan;99192.16;5025312;28;20243;-82
2023/05/12 00:53:40;;;;;;;4.47;3.17;;;;;;;13.60;nan;99186.19;5044848;28;20218;-81
2023/05/12 00:56:06;;;;;;;4.20;2.90;;;;;;;13.61;nan;99182.59;5027511;28;20860;-80
2023/05/12 00:58:31;;;;;;;3.47;2.90;;;;;;;13.61;nan;99176.44;5006463;28;20842;-81
2023/05/12 01:00:57;;;;;;;3.73;3.10;;;;;;;13.63;nan;99177.16;5002219;28;20600;-82
2023/05/12 01:03:23;;;;;;;4.20;3.50;;;;;;;13.64;nan;99179.69;5001219;28;20451;-82
2023/05/12 01:05:56;;;;;;;6.20;3.07;;;;;;;13.65;nan;99178.72;5003911;28;20241;-82
2023/05/12 01:08:23;;;;;;;3.83;3.20;;;;;;;13.63;nan;99175.34;5002271;28;20277;-81
2023/05/12 01:10:49;;;;;;;3.15;2.83;;;;;;;13.64;nan;99184.13;4994648;28;20218;-81
2023/05/12 01:13:16;;;;;;;5.20;3.60;;;;;;;13.66;nan;99179.53;5001533;28;20230;-81
2023/05/12 01:15:45;;;;;;;3.35;3.00;;;;;;;13.68;nan;99186.38;5000227;28;20228;-80
2023/05/12 01:18:13;;;;;;;4.10;2.85;;;;;;;13.70;nan;99183.63;5023140;28;20320;-81
2023/05/12 01:20:41;;;;;;;3.35;3.05;;;;;;;13.71;nan;99177.38;5011492;28;20307;-82
2023/05/12 01:23:07;;;;;;;4.75;3.40;;;;;;;13.72;nan;99179.06;5004701;28;20869;-81
2023/05/12 01:25:33;;;;;;;4.40;3.10;;;;;;;13.71;nan;99175.56;5010918;28;20265;-81
2023/05/12 01:28:01;;;;;;;4.50;3.35;;;;;;;13.70;nan;99173.06;5004374;28;20234;-81
2023/05/12 01:30:28;;;;;;;4.50;3.00;;;;;;;13.70;nan;99175.69;5007168;28;20218;-81
2023/05/12 01:32:54;;;;;;;5.28;3.33;;;;;;;13.70;nan;99176.53;5006167;28;20244;-81
2023/05/12 01:35:19;;;;;;;4.10;3.20;;;;;;;13.72;nan;99179.88;5006703;28;20479;-81
2023/05/12 01:37:53;;;;;;;4.28;3.10;;;;;;;13.75;nan;99173.53;5005765;28;20251;-81
2023/05/12 01:40:18;;;;;;;3.70;3.17;;;;;;;13.76;nan;99169.91;5007247;28;20312;-82
2023/05/12 01:42:44;;;;;;;4.13;2.40;;;;;;;13.76;nan;99174.34;5011021;28;20243;-81
2023/05/12 01:45:11;;;;;;;5.53;2.95;;;;;;;13.77;nan;99187.44;5005681;28;20222;-82
2023/05/12 01:47:36;;;;;;;4.13;2.90;;;;;;;13.77;nan;99179.50;5011299;28;20229;-82
2023/05/12 01:50:23;;;;;;;3.25;2.35;;;;;;;13.79;nan;99180.19;5013288;28;20254;-81
2023/05/12 01:52:52;;;;;;;3.33;3.03;;;;;;;13.79;nan;99169.63;5014025;28;20426;-81
2023/05/12 01:55:19;;;;;;;4.00;3.28;;;;;;;13.78;nan;99164.50;5016938;28;20217;-81
2023/05/12 01:57:50;;;;;;;3.75;3.30;;;;;;;13.80;nan;99171.34;5017812;28;20263;-82
2023/05/12 02:00:16;;;;;;;4.00;3.03;;;;;;;13.81;nan;99175.63;5026409;28;20594;-81
2023/05/12 02:02:44;;;;;;;3.03;2.77;;;;;;;13.79;nan;99174.91;5034799;28;20212;-81
2023/05/12 02:05:11;;;;;;;5.13;3.25;;;;;;;13.77;nan;99174.25;5044044;28;21078;-81
2023/05/12 02:07:36;;;;;;;4.90;3.00;;;;;;;13.71;nan;99175.56;5034398;28;20224;-81
2023/05/12 02:10:02;;;;;;;4.93;3.10;;;;;;;13.63;nan;99171.88;5033790;28;20223;-82
2023/05/12 02:12:28;;;;;;;5.57;3.20;;;;;;;13.55;nan;99174.34;5032497;28;20229;-82
2023/05/12 02:14:53;;;;;;;5.00;3.40;;;;;;;13.50;nan;99172.91;5032758;28;20225;-81
2023/05/12 02:17:19;;;;;;;3.40;2.90;;;;;;;13.50;nan;99172.06;5032153;28;20320;-82
2023/05/12 02:19:46;;;;;;;5.13;3.33;;;;;;;13.52;nan;99178.06;5032537;28;20221;-81
2023/05/12 02:22:13;;;;;;;3.90;3.25;;;;;;;13.55;nan;99171.69;5035248;28;20222;-82
2023/05/12 02:24:38;;;;;;;4.77;3.27;;;;;;;13.54;nan;99168.22;5031569;28;20209;-81
2023/05/12 02:27:04;;;;;;;8.40;3.80;;;;;;;13.50;nan;99169.44;5034385;28;20286;-82
2023/05/12 02:29:29;;;;;;;3.80;3.30;;;;;;;13.44;nan;99170.78;5032280;28;20231;-82
2023/05/12 02:31:55;;;;;;;6.93;3.50;;;;;;;13.41;nan;99173.66;5035887;28;20489;-82
2023/05/12 02:34:21;;;;;;;7.70;4.60;;;;;;;13.44;nan;99169.94;5033535;28;20550;-82
2023/05/12 02:36:46;;;;;;;4.03;3.43;;;;;;;13.44;nan;99169.94;5033896;28;20218;-81
2023/05/12 02:39:12;;;;;;;4.17;3.77;;;;;;;13.48;nan;99176.66;5030040;28;20527;-82
2023/05/12 02:41:38;;;;;;;6.00;3.47;;;;;;;13.53;nan;99176.25;5029711;28;20221;-82
2023/05/12 02:44:03;;;;;;;3.07;2.80;;;;;;;13.58;nan;99172.25;5031477;28;20216;-81
2023/05/12 02:46:29;;;;;;;4.47;3.93;;;;;;;13.64;nan;99176.22;5039831;28;20210;-81
2023/05/12 02:48:54;;;;;;;3.50;3.10;;;;;;;13.67;nan;99175.97;5028829;28;20233;-82
2023/05/12 02:51:20;;;;;;;3.73;2.30;;;;;;;13.66;nan;99171.63;5027787;28;20228;-81
2023/05/12 02:53:45;;;;;;;3.43;2.70;;;;;;;13.65;nan;99172.59;5031762;28;20252;-82
2023/05/12 02:56:11;;;;;;;3.67;2.80;;;;;;;13.64;nan;99173.59;5029654;28;20206;-81
2023/05/12 02:58:36;;;;;;;3.60;3.20;;;;;;;13.65;nan;99178.72;5044328;28;20233;-82
2023/05/12 03:01:02;;;;;;;4.10;3.10;;;;;;;13.64;nan;99174.41;5049102;28;20222;-81
2023/05/12 03:03:27;;;;;;;3.83;3.40;;;;;;;13.65;nan;99176.06;5028560;28;20248;-81
2023/05/12 03:05:54;;;;;;;4.35;3.55;;;;;;;13.69;nan;99169.59;5048741;28;20454;-82
2023/05/12 03:08:19;;;;;;;2.67;2.47;;;;;;;13.66;nan;99169.84;5036720;28;20228;-82
2023/05/12 03:10:44;;;;;;;3.53;3.07;;;;;;;13.67;nan;99178.59;5030002;28;20487;-82
2023/05/12 03:13:10;;;;;;;5.47;3.40;;;;;;;13.63;nan;99167.44;5048210;28;21059;-82
2023/05/12 03:15:35;;;;;;;4.50;2.77;;;;;;;13.63;nan;99185.09;5027111;28;20213;-82
2023/05/12 03:18:01;;;;;;;6.40;3.17;;;;;;;13.64;nan;99182.34;5028953;28;20593;-83
2023/05/12 03:20:28;;;;;;;5.60;4.05;;;;;;;13.67;nan;99182.06;5028706;28;20469;-82
2023/05/12 03:22:53;;;;;;;5.70;4.20;;;;;;;13.67;nan;99174.16;5048473;28;20212;-82
2023/05/12 03:25:19;;;;;;;6.00;3.93;;;;;;;13.67;nan;99171.50;5020516;28;20220;-82
2023/05/12 03:27:44;;;;;;;5.10;4.27;;;;;;;13.70;nan;99178.34;5048312;28;20217;-82
2023/05/12 03:30:10;;;;;;;4.50;4.17;;;;;;;13.72;nan;99177.25;5047043;28;20550;-82
2023/05/12 03:32:38;;;;;;;5.40;4.25;;;;;;;13.75;nan;99172.69;5031178;28;20729;-82
2023/05/12 03:35:04;;;;;;;8.00;4.10;;;;;;;13.78;nan;99167.97;5030026;28;20750;-82
2023/05/12 03:37:30;;;;;;;3.90;3.40;;;;;;;13.80;nan;99170.47;5039167;28;20221;-83
2023/05/12 03:39:56;;;;;;;4.63;3.73;;;;;;;13.81;nan;99172.16;5029565;28;20213;-82
2023/05/12 03:42:24;;;;;;;4.23;3.47;;;;;;;13.84;nan;99171.91;5031911;28;20629;-83
2023/05/12 03:44:50;;;;;;;5.80;3.10;;;;;;;13.85;nan;99169.16;5028313;28;20555;-82
2023/05/12 03:47:16;;;;;;;3.33;2.47;;;;;;;13.88;nan;99168.88;5027415;28;20244;-82
2023/05/12 03:49:41;;;;;;;7.50;3.67;;;;;;;13.90;nan;99171.38;5029130;28;20834;-82
2023/05/12 03:52:07;;;;;;;4.40;3.27;;;;;;;13.88;nan;99166.25;5045406;28;20221;-82
2023/05/12 03:54:32;;;;;;;3.33;3.03;;;;;;;13.86;nan;99165.53;5034671;28;20330;-82
2023/05/12 03:56:58;;;;;;;4.70;3.60;;;;;;;13.85;nan;99169.16;5045486;28;20216;-82
2023/05/12 03:59:23;;;;;;;4.57;3.13;;;;;;;13.83;nan;99167.59;5045130;28;20213;-82
2023/05/12 04:01:51;;;;;;;4.72;3.65;;;;;;;13.82;nan;99161.47;5025274;28;20758;-82
2023/05/12 04:04:16;;;;;;;4.80;3.75;;;;;;;13.82;nan;99156.19;5023800;28;20222;-83
2023/05/12 04:06:42;;;;;;;7.37;4.70;;;;;;;13.78;nan;99157.41;5042850;28;20532;-82
2023/05/12 04:09:07;;;;;;;14.03;4.20;;;;;;;13.76;nan;99153.22;5024759;28;20256;-83
2023/05/12 04:11:35;;;;;;;5.88;4.57;;;;;;;13.74;nan;99163.91;5023189;28;20217;-83
2023/05/12 04:14:01;;;;;;;6.57;5.38;;;;;;;13.72;nan;99161.41;5044180;28;20216;-82
2023/05/12 04:16:27;;;;;;;6.33;4.43;;;;;;;13.74;nan;99158.63;5044111;28;20225;-82
2023/05/12 04:18:52;;;;;;;4.80;3.90;;;;;;;13.73;nan;99160.44;5043112;28;20480;-82
2023/05/12 04:21:17;;;;;;;5.10;4.10;;;;;;;13.73;nan;99155.16;5045547;28;20217;-82
2023/05/12 04:23:43;;;;;;;5.67;4.53;;;;;;;13.76;nan;99159.34;5037451;28;20217;-82
2023/05/12 04:26:09;;;;;;;7.07;6.03;;;;;;;13.77;nan;99161.03;5025112;28;20591;-82
2023/05/12 04:28:35;;;;;;;8.47;5.80;;;;;;;13.78;nan;99162.69;5028134;28;20225;-82
2023/05/12 04:31:04;;;;;;;5.47;4.90;;;;;;;13.75;nan;99162.97;5028492;28;20281;-82
2023/05/12 04:33:30;;;;;;;8.63;5.85;;;;;;;13.73;nan;99167.53;5029658;28;20216;-81
2023/05/12 04:35:57;;;;;;;7.38;5.85;;;;;;;13.73;nan;99170.16;5026593;28;20452;-81
2023/05/12 04:38:22;;;;;;;8.70;6.43;;;;;;;13.72;nan;99164.06;5029905;28;20224;-80
2023/05/12 04:40:48;;;;;;;7.63;6.70;;;;;;;13.72;nan;99164.06;5012520;28;20217;-81
2023/05/12 04:43:14;;;;;;;6.40;4.73;;;;;;;13.74;nan;99169.19;5028535;28;20211;-81
2023/05/12 04:45:39;;;;;;;8.80;5.93;;;;;;;13.78;nan;99167.97;5029151;28;20925;-81
2023/05/12 04:48:05;;;;;;;7.33;5.60;;;;;;;13.81;nan;99169.53;5026954;28;20581;-81
2023/05/12 04:50:30;;;;;;;5.87;5.27;;;;;;;13.84;nan;99177.19;5026172;28;20847;-81
2023/05/12 04:52:56;;;;;;;8.80;5.87;;;;;;;13.87;nan;99176.91;5043690;28;20707;-81
2023/05/12 04:55:22;;;;;;;9.90;6.80;;;;;;;13.88;nan;99179.44;5026603;28;20784;-81
2023/05/12 04:57:48;;;;;;;7.90;6.35;;;;;;;13.88;nan;99179.44;5022997;28;20237;-81
2023/05/12 05:00:13;;;;;;;7.10;6.00;;;;;;;13.91;nan;99181.81;5042254;28;20313;-80
2023/05/12 05:02:40;;;;;;;10.88;8.02;;;;;;;13.94;nan;99191.28;5022952;28;20217;-81
2023/05/12 05:05:07;;;;;;;13.00;8.68;;;;;;;13.97;nan;99187.56;5025866;28;20431;-81
2023/05/12 05:07:33;;;;;;;7.72;6.35;;;;;;;13.99;nan;99188.25;5025278;28;20754;-82
2023/05/12 05:09:58;;;;;;;9.30;8.10;;;;;;;14.01;nan;99186.31;5045343;28;20304;-81
2023/05/12 05:12:24;;;;;;;10.60;6.95;;;;;;;14.04;nan;99188.69;5030169;28;20301;-81
2023/05/12 05:14:50;;;;;;;10.00;9.00;;;;;;;14.06;nan;99187.59;5028055;28;20222;-81
2023/05/12 05:17:15;;;;;;;10.87;7.03;;;;;;;14.10;nan;99190.84;5030008;28;20220;-81
2023/05/12 05:19:41;;;;;;;12.73;6.90;;;;;;;14.12;nan;99196.81;5043891;28;20292;-81
2023/05/12 05:22:06;;;;;;;12.73;7.60;;;;;;;14.13;nan;99188.75;5031978;28;20229;-82
2023/05/12 05:24:32;;;;;;;9.67;8.23;;;;;;;14.14;nan;99189.59;5050849;28;20220;-81
2023/05/12 05:26:58;;;;;;;8.97;6.27;;;;;;;14.15;nan;99192.13;5051400;28;20225;-81
2023/05/12 05:29:25;;;;;;;8.68;6.95;;;;;;;14.18;nan;99185.72;5034875;28;20214;-81
2023/05/12 05:31:51;;;;;;;8.40;7.50;;;;;;;14.22;nan;99189.78;5039067;28;20235;-81
2023/05/12 05:34:17;;;;;;;9.93;7.20;;;;;;;14.25;nan;99189.50;5049013;28;20326;-81
2023/05/12 05:36:43;;;;;;;11.63;7.57;;;;;;;14.29;nan;99190.09;5048321;28;20465;-81
2023/05/12 05:39:09;;;;;;;12.20;8.60;;;;;;;14.33;nan;99187.03;5034026;28;20254;-81
2023/05/12 05:41:35;;;;;;;10.70;7.70;;;;;;;14.37;nan;99195.56;5035206;28;20220;-81
2023/05/12 05:44:01;;;;;;;10.65;8.02;;;;;;;14.39;nan;99198.88;5034306;28;20211;-81
2023/05/12 05:46:27;;;;;;;12.57;7.75;;;;;;;14.42;nan;99197.78;5034189;28;20254;-81
2023/05/12 05:48:53;;;;;;;12.10;7.20;;;;;;;14.45;nan;99203.66;5038468;28;20217;-81
2023/05/12 05:51:19;;;;;;;10.43;6.20;;;;;;;14.47;nan;99203.53;5038394;28;20280;-81
2023/05/12 05:53:44;;;;;;;8.90;7.37;;;;;;;14.49;nan;99205.06;5037979;28;20207;-83
2023/05/12 05:56:10;;;;;;;11.30;7.93;;;;;;;14.51;nan;99204.94;5032736;28;20244;-85
2023/05/12 05:58:37;;;;;;;9.10;6.43;;;;;;;14.55;nan;99204.56;5040781;28;20257;-85
2023/05/12 06:01:12;;;;;;;9.13;7.05;;;;;;;14.56;nan;99205.41;5049429;28;20605;-85
2023/05/12 06:03:41;;;;;;;8.13;6.03;;;;;;;14.56;nan;99203.59;5024896;28;20218;-87
2023/05/12 06:06:06;;;;;;;9.05;6.53;;;;;;;14.58;nan;99195.53;5049572;28;20266;-85
2023/05/12 06:08:32;;;;;;;11.27;8.47;;;;;;;14.60;nan;99196.22;5034376;28;20215;-85
2023/05/12 06:10:58;;;;;;;11.90;7.10;;;;;;;14.62;nan;99191.66;5044965;28;20273;-85
2023/05/12 06:13:23;;;;;;;10.10;7.97;;;;;;;14.63;nan;99192.50;5020059;28;20240;-84
2023/05/12 06:15:48;;;;;;;8.40;5.90;;;;;;;14.66;nan;99200.97;5026704;28;20353;-85
2023/05/12 06:18:14;;;;;;;10.10;7.10;;;;;;;14.75;nan;99202.84;5026525;28;20738;-84
2023/05/12 06:20:40;;;;;;;8.87;7.10;;;;;;;14.87;nan;99200.91;5043626;28;20240;-84
2023/05/12 06:23:06;;;;;;;10.40;7.15;;;;;;;15.03;nan;99203.03;5027034;28;20438;-84
2023/05/12 06:25:32;;;;;;;9.63;7.10;;;;;;;15.13;nan;99203.06;5044541;28;20223;-83
2023/05/12 06:27:59;;;;;;;10.77;8.68;;;;;;;15.19;nan;99211.28;5044833;28;20230;-83
2023/05/12 06:30:26;;;;;;;10.13;7.78;;;;;;;15.23;nan;99202.13;5039463;28;20227;-83
2023/05/12 06:32:53;;;;;;;11.57;8.05;;;;;;;15.29;nan;99211.31;5030890;28;20225;-83
2023/05/12 06:35:18;;;;;;;10.00;7.47;;;;;;;15.35;nan;99202.81;5048390;28;20219;-83
2023/05/12 06:37:48;;;;;;;11.97;8.77;;;;;;;15.37;nan;99208.81;5051377;28;20272;-82
2023/05/12 06:40:14;;;;;;;14.98;9.40;;;;;;;15.34;nan;99217.03;5044209;28;20300;-82
2023/05/12 06:42:40;;;;;;;9.63;7.75;;;;;;;15.33;nan;99210.06;5045429;28;20219;-82
2023/05/12 06:45:09;;;;;;;10.32;7.78;;;;;;;15.39;nan;99211.31;5052029;28;20282;-82
2023/05/12 06:47:35;;;;;;;12.10;8.38;;;;;;;15.46;nan;99212.44;5048644;28;20229;-82
2023/05/12 06:50:00;;;;;;;11.83;7.20;;;;;;;15.49;nan;99214.81;5045902;28;20302;-82
2023/05/12 06:52:25;;;;;;;12.07;8.33;;;;;;;15.54;nan;99217.03;5045356;28;20220;-82
2023/05/12 06:54:51;;;;;;;11.50;9.00;;;;;;;15.55;nan;99208.94;5051451;28;20205;-81
2023/05/12 06:57:17;;;;;;;8.88;7.30;;;;;;;15.59;nan;99214.81;5033714;28;20465;-81
2023/05/12 06:59:42;;;;;;;11.03;7.83;;;;;;;15.61;nan;99216.34;5052099;28;20206;-82
2023/05/12 07:02:08;;;;;;;18.80;9.93;;;;;;;15.66;nan;99215.91;5050770;28;20747;-81
2023/05/12 07:04:35;;;;;;;10.93;9.50;;;;;;;15.66;nan;99214.13;5050083;28;20226;-81
2023/05/12 07:07:00;;;;;;;13.95;8.95;;;;;;;15.65;nan;99215.09;5050227;28;20260;-81
2023/05/12 07:09:25;;;;;;;13.47;9.17;;;;;;;15.66;nan;99216.78;5051870;28;20791;-82
2023/05/12 07:11:51;;;;;;;11.80;9.50;;;;;;;15.70;nan;99206.75;5051314;28;20592;-81
2023/05/12 07:14:16;;;;;;;15.70;10.93;;;;;;;15.72;nan;99210.13;5048849;28;20282;-82
2023/05/12 07:16:42;;;;;;;11.90;8.97;;;;;;;15.79;nan;99213.03;5046931;28;20390;-82
2023/05/12 07:19:08;;;;;;;12.83;8.80;;;;;;;15.90;nan;99221.69;5047803;28;20216;-81
2023/05/12 07:21:34;;;;;;;15.20;10.50;;;;;;;15.98;nan;99213.00;5047358;28;20398;-81
2023/05/12 07:23:59;;;;;;;12.30;8.50;;;;;;;16.20;nan;99205.69;5047483;28;20218;-82
2023/05/12 07:26:27;;;;;;;14.47;10.30;;;;;;;16.44;nan;99200.75;5047367;28;20221;-81
2023/05/12 07:28:52;;;;;;;12.50;8.45;;;;;;;16.68;nan;99202.88;5045109;28;20225;-82
2023/05/12 07:31:18;;;;;;;12.00;7.33;;;;;;;16.86;nan;99204.81;5050268;28;20235;-82
2023/05/12 07:33:43;;;;;;;12.40;8.53;;;;;;;17.00;nan;99201.66;5047236;28;20227;-82
2023/05/12 07:36:08;;;;;;;12.40;10.10;;;;;;;17.05;nan;99206.50;5044734;28;20446;-82
2023/05/12 07:38:34;;;;;;;9.97;8.47;;;;;;;17.05;nan;99206.50;5045688;28;20317;-81
2023/05/12 07:41:00;;;;;;;11.15;8.27;;;;;;;17.06;nan;99203.69;5028440;28;20353;-82
2023/05/12 07:43:26;;;;;;;12.30;7.53;;;;;;;17.06;nan;99205.53;5047498;28;20840;-82
2023/05/12 07:45:53;;;;;;;10.07;6.90;;;;;;;17.08;nan;99198.25;5045354;28;20321;-81
2023/05/12 07:48:18;;;;;;;8.45;6.70;;;;;;;17.10;nan;99204.25;5044556;28;20505;-82
2023/05/12 07:50:44;;;;;;;12.67;7.37;;;;;;;17.05;nan;99202.03;5045050;28;20594;-82
2023/05/12 07:53:09;;;;;;;10.10;8.10;;;;;;;17.01;nan;99200.66;5045953;28;20215;-82
2023/05/12 07:55:35;;;;;;;10.97;6.60;;;;;;;17.01;nan;99200.66;5043352;28;20217;-82
2023/05/12 07:58:00;;;;;;;13.80;10.33;;;;;;;17.01;nan;99196.19;5085482;22;20246;-85
2023/05/12 08:00:26;;;;;;;11.00;7.57;;;;;;;17.12;nan;99204.91;5039873;28;20216;-84
2023/05/12 08:02:52;;;;;;;12.30;8.50;;;;;;;17.24;nan;99190.47;5049867;28;20598;-84
2023/05/12 08:05:18;;;;;;;10.10;6.82;;;;;;;17.30;nan;99191.69;5058615;28;20220;-81
2023/05/12 08:07:44;;;;;;;9.37;6.80;;;;;;;17.32;nan;99195.84;5036025;28;20223;-84
2023/05/12 08:10:11;;;;;;;12.43;7.00;;;;;;;17.42;nan;99201.09;5040318;28;20212;-83
2023/05/12 08:12:39;;;;;;;10.55;7.47;;;;;;;17.38;nan;99192.59;5039172;28;20443;-83
2023/05/12 08:15:05;;;;;;;9.25;6.97;;;;;;;17.30;nan;99203.13;5038928;28;20218;-81
2023/05/12 08:17:30;;;;;;;10.68;7.65;;;;;;;17.22;nan;99200.38;5038742;28;20206;-83
2023/05/12 08:19:56;;;;;;;10.53;7.27;;;;;;;17.19;nan;99198.03;5039787;28;20480;-81
2023/05/12 08:22:21;;;;;;;10.57;7.23;;;;;;;17.18;nan;99204.34;5040971;28;20208;-81
2023/05/12 08:24:46;;;;;;;14.00;9.90;;;;;;;17.23;nan;99208.22;5042581;28;20218;-81
2023/05/12 08:27:12;;;;;;;17.60;12.37;;;;;;;17.24;nan;99201.91;5042221;28;20249;-82
2023/05/12 08:29:37;;;;;;;15.87;12.40;;;;;;;17.16;nan;99201.00;5039288;28;20685;-85
2023/05/12 08:32:03;;;;;;;17.93;12.60;;;;;;;17.10;nan;99201.59;5039656;28;20215;-85
2023/05/12 08:34:31;;;;;;;15.10;11.88;;;;;;;16.98;nan;99207.09;5040565;28;20674;-85
2023/05/12 08:37:00;;;;;;;16.52;10.55;;;;;;;16.81;nan;99202.59;5040150;28;20692;-81
2023/05/12 08:39:29;;;;;;;16.67;11.13;;;;;;;16.73;nan;99210.41;5038149;28;20468;-81
2023/05/12 08:42:16;;;;;;;15.82;11.48;;;;;;;16.70;nan;99210.72;5040026;28;20306;-83
2023/05/12 08:44:42;;;;;;;17.65;12.70;;;;;;;16.69;nan;99209.03;5030391;28;20211;-81
2023/05/12 08:47:09;;;;;;;15.40;11.90;;;;;;;16.72;nan;99216.72;5039683;28;20225;-81
2023/05/12 08:49:35;;;;;;;16.67;10.63;;;;;;;16.79;nan;99223.09;5039684;28;20477;-81
2023/05/12 08:52:01;;;;;;;17.17;9.83;;;;;;;16.87;nan;99219.72;5038054;28;20225;-82
2023/05/12 08:54:28;;;;;;;17.20;10.85;;;;;;;16.93;nan;99212.03;5038363;28;20869;-82
2023/05/12 08:56:54;;;;;;;12.43;9.50;;;;;;;17.03;nan;99215.44;5037986;28;20208;-81
2023/05/12 08:59:21;;;;;;;12.25;8.50;;;;;;;17.10;nan;99212.22;5038915;28;20315;-83
2023/05/12 09:01:48;;;;;;;11.13;7.93;;;;;;;17.16;nan;99216.91;5038626;28;20301;-81
2023/05/12 09:04:16;;;;;;;10.73;8.85;;;;;;;17.21;nan;99204.88;5039690;28;20227;-81
2023/05/12 09:06:43;;;;;;;13.10;8.43;;;;;;;17.27;nan;99214.03;5039699;28;20213;-84
2023/05/12 09:09:11;;;;;;;14.35;9.68;;;;;;;17.33;nan;99213.44;5038955;28;20244;-81
2023/05/12 09:11:37;;;;;;;14.93;7.85;;;;;;;17.38;nan;99211.16;5038629;28;20220;-79
2023/05/12 09:14:07;;;;;;;10.83;7.50;;;;;;;17.58;nan;99211.00;5038451;28;20253;-80
2023/05/12 09:16:40;;;;;;;9.65;6.65;;;;;;;17.99;nan;99211.41;5015224;28;20223;-81
2023/05/12 09:19:06;;;;;;;11.07;6.85;;;;;;;18.15;nan;99206.22;5036108;28;20254;-81
2023/05/12 09:21:32;;;;;;;13.23;8.20;;;;;;;18.30;nan;99206.44;5035708;28;20281;-82
2023/05/12 09:24:05;;;;;;;9.90;7.78;;;;;;;18.51;nan;99206.91;5035806;28;20213;-81
2023/05/12 09:26:43;;;;;;;8.30;6.95;;;;;;;18.89;nan;99206.63;5036938;28;20215;-80
2023/05/12 09:29:08;;;;;;;10.18;7.32;;;;;;;19.13;nan;99198.69;5037074;28;20229;-80
2023/05/12 09:31:34;;;;;;;8.73;7.83;;;;;;;19.17;nan;99199.19;5038825;28;20222;-80
2023/05/12 09:34:01;;;;;;;8.10;6.50;;;;;;;19.09;nan;99201.84;5039685;28;20241;-80
2023/05/12 09:36:27;;;;;;;8.95;7.20;;;;;;;19.01;nan;99208.00;5038430;28;21537;-83
2023/05/12 09:39:06;;;;;;;9.40;7.13;;;;;;;18.93;nan;99205.28;5041866;28;20220;-80
2023/05/12 09:41:35;;;;;;;7.40;6.40;;;;;;;18.86;nan;99207.75;5041830;28;20920;-83
2023/05/12 09:44:01;;;;;;;6.50;5.70;;;;;;;18.79;nan;99196.09;5024387;28;20460;-80
2023/05/12 09:46:26;;;;;;;6.97;6.20;;;;;;;18.80;nan;99197.78;5039124;28;20472;-84
2023/05/12 09:48:56;;;;;;;7.40;6.00;;;;;;;18.92;nan;99195.63;5039905;28;21147;-84
2023/05/12 09:51:22;;;;;;;7.00;6.07;;;;;;;18.96;nan;99197.81;5039143;28;20233;-80
2023/05/12 09:53:48;;;;;;;6.60;5.73;;;;;;;18.91;nan;99196.66;5039283;28;20551;-82
2023/05/12 09:56:15;;;;;;;8.53;7.00;;;;;;;18.88;nan;99192.47;5040264;28;20467;-82
2023/05/12 09:58:43;;;;;;;7.73;6.80;;;;;;;18.78;nan;99195.25;5040402;28;20481;-83
2023/05/12 10:01:13;;;;;;;7.93;6.50;;;;;;;18.81;nan;99194.09;5039040;28;20477;-82
2023/05/12 10:03:46;;;;;;;6.73;6.07;;;;;;;18.95;nan;99187.31;5038904;28;20467;-83
2023/05/12 10:06:20;;;;;;;8.67;6.23;;;;;;;18.98;nan;99187.00;5038705;28;20534;-84
2023/05/12 10:08:51;;;;;;;7.20;6.40;;;;;;;19.06;nan;99186.19;5038185;28;20902;-81
2023/05/12 10:11:18;;;;;;;8.00;7.20;;;;;;;19.14;nan;99183.56;5038175;28;20464;-81
2023/05/12 10:13:44;;;;;;;7.87;7.07;;;;;;;19.11;nan;99179.38;5036098;28;21012;-82
2023/05/12 10:16:09;;;;;;;6.90;6.20;;;;;;;19.19;nan;99190.06;5036428;28;20467;-82
2023/05/12 10:18:35;;;;;;;8.87;6.73;;;;;;;19.35;nan;99191.91;5025329;28;20511;-83
2023/05/12 10:21:02;;;;;;;10.00;7.10;;;;;;;19.65;nan;99182.44;5041558;28;20213;-82
2023/05/12 10:23:27;;;;;;;9.33;6.40;;;;;;;19.83;nan;99178.84;5044349;28;20480;-81
2023/05/12 10:26:00;;;;;;;7.80;6.17;;;;;;;19.87;nan;99175.66;5044096;28;20464;-81
2023/05/12 10:28:26;;;;;;;7.57;5.63;;;;;;;20.06;nan;99177.16;5046536;28;20289;-83
2023/05/12 10:30:53;;;;;;;6.87;6.17;;;;;;;20.18;nan;99177.63;5033807;28;20878;-84
2023/05/12 10:33:18;;;;;;;7.17;6.23;;;;;;;20.31;nan;99177.09;5044286;28;20976;-81
2023/05/12 10:35:44;;;;;;;7.57;6.13;;;;;;;20.31;nan;99179.75;5043691;28;20523;-80
2023/05/12 10:38:11;;;;;;;6.83;5.73;;;;;;;20.17;nan;99169.78;5045248;28;20223;-80
2023/05/12 10:40:56;;;;;;;8.33;6.60;;;;;;;20.11;nan;99174.78;5045435;28;20303;-81
2023/05/12 10:43:37;;;;;;;6.30;5.30;;;;;;;20.18;nan;99166.13;5047497;28;20459;-83
2023/05/12 10:46:16;;;;;;;8.70;6.10;;;;;;;20.31;nan;99158.44;5049541;28;20471;-83
2023/05/12 10:48:51;;;;;;;5.83;4.97;;;;;;;20.51;nan;99161.53;5049416;28;20473;-82
2023/05/12 10:51:22;;;;;;;6.57;5.37;;;;;;;20.49;nan;99153.66;5047062;28;20609;-82
2023/05/12 10:53:52;;;;;;;5.20;4.70;;;;;;;20.53;nan;99148.84;5051708;28;20510;-83
2023/05/12 10:56:27;;;;;;;5.30;4.80;;;;;;;20.65;nan;99158.16;5052181;28;20540;-83
2023/05/12 10:59:21;;;;;;;6.50;4.70;;;;;;;20.68;nan;99151.63;5051187;28;20631;-82
2023/05/12 11:02:15;;;;;;;4.87;4.30;;;;;;;20.87;nan;99151.19;5029760;28;20714;-82
2023/05/12 11:04:50;;;;;;;4.27;3.87;;;;;;;21.05;nan;99147.44;5046595;28;21013;-82
2023/05/12 11:07:22;;;;;;;5.10;4.57;;;;;;;21.19;nan;99142.16;5044770;28;20491;-83
2023/05/12 11:09:48;;;;;;;5.63;4.60;;;;;;;21.31;nan;99144.44;5045934;28;20460;-82
2023/05/12 11:12:15;;;;;;;9.70;4.37;;;;;;;21.27;nan;99146.63;5045414;28;20494;-81
2023/05/12 11:14:42;;;;;;;5.10;3.40;;;;;;;21.19;nan;99144.00;5034908;28;20474;-83
2023/05/12 11:17:09;;;;;;;3.67;3.37;;;;;;;21.13;nan;99144.72;5049366;28;20518;-82
2023/05/12 11:19:36;;;;;;;4.47;3.67;;;;;;;21.17;nan;99146.00;5047914;28;20606;-82
2023/05/12 11:22:08;;;;;;;3.30;2.97;;;;;;;21.30;nan;99143.59;5033553;28;20469;-82
2023/05/12 11:24:35;;;;;;;3.80;3.30;;;;;;;21.38;nan;99148.91;5046830;28;20450;-83
2023/05/12 11:27:03;;;;;;;3.00;2.63;;;;;;;21.45;nan;99148.22;5031765;28;20971;-82
2023/05/12 11:29:29;;;;;;;3.67;2.97;;;;;;;21.51;nan;99142.16;5046596;28;20466;-82
2023/05/12 11:31:54;;;;;;;2.50;2.30;;;;;;;21.42;nan;99142.22;5047485;28;20477;-81
2023/05/12 11:34:24;;;;;;;3.20;2.30;;;;;;;21.46;nan;99144.53;5046987;28;20224;-82
2023/05/12 11:36:52;;;;;;;2.63;2.43;;;;;;;21.56;nan;99137.09;5045755;28;20327;-83
2023/05/12 11:39:22;;;;;;;2.30;2.10;;;;;;;21.52;nan;99141.13;5044667;28;20474;-83
2023/05/12 11:41:49;;;;;;;2.40;2.20;;;;;;;21.36;nan;99139.38;5045525;28;20868;-83
2023/05/12 11:44:17;;;;;;;3.50;2.20;;;;;;;21.20;nan;99132.34;5045145;28;20466;-82